Time;durP1;ratioP1;P1;durP2;ratioP2;P2;SDS_P1;SDS_P2;PMS_P1;PMS_P2;Temp;Humidity;BMP_temperature;BMP_pressure;BME280_temperature;BME280_humidity;BME280_pressure;Samples;Min_cycle;Max_cycle;Signal;HPM_P1;HPM_P2
2023/11/27 00:02:03;;;;;;;7.10;3.88;;;22.60;43.30;;;;;;6176029;28;80401;-58
2023/11/27 00:05:04;;;;;;;6.72;3.92;;;22.60;43.10;;;;;;6176529;28;80449;-57
2023/11/27 00:08:05;;;;;;;6.80;3.70;;;22.60;43.30;;;;;;6177655;28;80854;-65
2023/11/27 00:11:06;;;;;;;7.95;4.05;;;22.60;43.70;;;;;;6178363;28;80434;-67
2023/11/27 00:14:06;;;;;;;8.02;3.78;;;22.70;43.50;;;;;;6177966;28;80376;-66
2023/11/27 00:17:07;;;;;;;6.40;3.60;;;22.70;43.00;;;;;;6177468;28;81929;-67
2023/11/27 00:20:09;;;;;;;5.93;3.58;;;22.70;43.00;;;;;;6177364;28;80687;-67
2023/11/27 00:23:13;;;;;;;7.25;3.70;;;22.70;42.90;;;;;;6177376;28;80607;-68
2023/11/27 00:26:13;;;;;;;6.90;3.85;;;22.70;43.00;;;;;;6177587;28;80544;-57
2023/11/27 00:29:20;;;;;;;7.63;3.83;;;22.70;42.80;;;;;;6174504;28;81590;-57
2023/11/27 00:32:21;;;;;;;6.95;3.88;;;22.70;42.50;;;;;;6174704;28;81479;-58
2023/11/27 00:35:21;;;;;;;5.75;3.28;;;22.70;42.10;;;;;;6176692;28;80910;-55
2023/11/27 00:38:22;;;;;;;5.70;3.17;;;22.70;41.80;;;;;;6173974;28;83272;-54
2023/11/27 00:41:23;;;;;;;5.90;3.45;;;22.70;41.80;;;;;;6177661;28;80388;-57
2023/11/27 00:44:23;;;;;;;5.07;3.10;;;22.70;41.80;;;;;;6176653;28;80738;-67
2023/11/27 00:47:24;;;;;;;5.80;3.47;;;22.70;41.80;;;;;;6176581;28;81542;-66
2023/11/27 00:50:24;;;;;;;6.20;3.25;;;22.70;41.90;;;;;;6175392;28;82046;-64
2023/11/27 00:53:25;;;;;;;6.25;3.60;;;22.70;41.80;;;;;;6175180;28;83412;-63
2023/11/27 00:56:25;;;;;;;6.30;3.30;;;22.70;41.70;;;;;;6176271;28;80868;-63
2023/11/27 00:59:27;;;;;;;7.43;3.40;;;22.70;41.50;;;;;;6174575;28;83054;-61
2023/11/27 01:02:28;;;;;;;5.88;3.28;;;22.60;41.60;;;;;;6177591;28;80607;-64
2023/11/27 01:05:28;;;;;;;5.40;3.33;;;22.70;41.60;;;;;;6176798;28;85656;-65
2023/11/27 01:08:29;;;;;;;7.30;3.47;;;22.60;41.60;;;;;;6174213;28;81521;-63
2023/11/27 01:11:29;;;;;;;5.10;2.70;;;22.60;41.60;;;;;;6175776;28;80678;-64
2023/11/27 01:14:30;;;;;;;5.05;2.90;;;22.60;41.50;;;;;;6175913;28;80357;-64
2023/11/27 01:17:30;;;;;;;4.13;3.13;;;22.60;41.80;;;;;;6176994;28;81538;-64
2023/11/27 01:20:32;;;;;;;5.38;3.15;;;22.60;41.80;;;;;;6175443;28;80969;-64
2023/11/27 01:23:33;;;;;;;5.43;2.90;;;22.60;41.90;;;;;;6163465;28;82477;-63
2023/11/27 01:26:33;;;;;;;5.43;2.88;;;22.60;41.90;;;;;;6176157;28;80383;-67
2023/11/27 01:29:34;;;;;;;5.88;3.00;;;22.60;41.90;;;;;;6175913;28;80354;-66
2023/11/27 01:32:35;;;;;;;5.40;2.97;;;22.60;41.90;;;;;;6175398;28;80356;-67
2023/11/27 01:35:35;;;;;;;5.78;2.85;;;22.60;42.20;;;;;;6175746;28;80368;-67
2023/11/27 01:38:36;;;;;;;4.45;2.70;;;22.60;41.70;;;;;;6174246;28;81925;-55
2023/11/27 01:41:36;;;;;;;5.13;3.00;;;22.50;41.80;;;;;;6175180;28;81864;-56
2023/11/27 01:44:37;;;;;;;6.28;2.42;;;22.50;41.80;;;;;;6162573;28;82971;-56
2023/11/27 01:47:37;;;;;;;5.35;2.58;;;22.50;42.20;;;;;;6189263;28;84270;-56
2023/11/27 01:50:38;;;;;;;5.40;2.90;;;22.50;41.80;;;;;;6175202;28;80947;-56
2023/11/27 01:53:39;;;;;;;5.68;2.78;;;22.50;41.90;;;;;;6175086;28;81369;-56
2023/11/27 01:56:39;;;;;;;3.88;2.47;;;22.50;41.90;;;;;;6173693;28;81236;-57
2023/11/27 01:59:40;;;;;;;5.45;2.83;;;22.50;41.90;;;;;;6173155;28;83147;-65
2023/11/27 02:02:40;;;;;;;4.88;2.90;;;22.50;42.00;;;;;;6172626;28;81882;-65
2023/11/27 02:05:41;;;;;;;4.70;2.90;;;22.50;41.70;;;;;;6174233;28;81481;-66
2023/11/27 02:08:41;;;;;;;5.43;2.92;;;22.60;41.10;;;;;;6176182;28;81781;-64
2023/11/27 02:11:42;;;;;;;5.47;2.70;;;22.60;40.70;;;;;;6176151;28;80420;-63
2023/11/27 02:14:45;;;;;;;5.85;3.08;;;22.50;40.60;;;;;;6176753;28;81556;-65
2023/11/27 02:17:45;;;;;;;4.68;2.70;;;22.60;40.90;;;;;;6174342;28;81341;-62
2023/11/27 02:20:46;;;;;;;5.78;3.22;;;22.50;41.00;;;;;;6175598;28;80466;-62
2023/11/27 02:23:46;;;;;;;7.95;3.92;;;22.60;40.70;;;;;;6175077;28;84765;-61
2023/11/27 02:26:47;;;;;;;5.97;2.97;;;22.60;40.90;;;;;;6175288;28;82342;-61
2023/11/27 02:29:47;;;;;;;4.72;2.40;;;22.60;41.00;;;;;;6163625;28;81641;-60
2023/11/27 02:32:48;;;;;;;5.53;2.90;;;22.60;41.20;;;;;;6175459;28;80314;-63
2023/11/27 02:35:48;;;;;;;5.68;3.33;;;22.50;41.20;;;;;;6175312;28;81015;-58
2023/11/27 02:38:49;;;;;;;6.80;3.92;;;22.50;41.20;;;;;;6173975;28;81812;-57
2023/11/27 02:41:49;;;;;;;5.05;2.88;;;22.60;40.70;;;;;;6174572;28;80723;-58
2023/11/27 02:44:50;;;;;;;6.80;3.28;;;22.50;41.40;;;;;;6167397;28;80575;-58
2023/11/27 02:47:51;;;;;;;4.75;3.00;;;22.60;42.30;;;;;;6174451;28;83417;-59
2023/11/27 02:50:51;;;;;;;5.65;2.70;;;22.60;42.30;;;;;;6172999;28;81911;-58
2023/11/27 02:53:52;;;;;;;6.93;2.53;;;22.60;42.50;;;;;;6165677;28;80329;-66
2023/11/27 02:56:53;;;;;;;5.15;2.80;;;22.60;42.50;;;;;;6173535;28;81241;-66
2023/11/27 02:59:54;;;;;;;4.65;2.63;;;22.60;42.30;;;;;;6174931;28;80535;-67
2023/11/27 03:02:54;;;;;;;6.20;3.00;;;22.60;42.00;;;;;;6173573;28;80616;-64
2023/11/27 03:05:55;;;;;;;5.53;2.97;;;22.60;41.70;;;;;;6173179;28;82757;-64
2023/11/27 03:08:55;;;;;;;6.95;3.58;;;22.60;41.80;;;;;;6176261;28;80766;-64
2023/11/27 03:11:57;;;;;;;4.60;2.85;;;22.60;42.10;;;;;;6178679;28;81410;-57
2023/11/27 03:14:57;;;;;;;4.75;2.85;;;22.60;41.80;;;;;;6182096;28;87125;-59
2023/11/27 03:17:58;;;;;;;5.97;2.90;;;22.50;41.60;;;;;;6179521;28;80220;-58
2023/11/27 03:20:58;;;;;;;5.10;3.05;;;22.50;41.70;;;;;;6183163;28;80961;-59
2023/11/27 03:23:59;;;;;;;5.72;2.97;;;22.50;41.80;;;;;;6196551;28;81688;-58
2023/11/27 03:26:59;;;;;;;4.53;2.80;;;22.50;41.70;;;;;;6202669;28;80421;-58
2023/11/27 03:30:00;;;;;;;5.68;2.90;;;22.50;41.60;;;;;;6192745;28;80713;-57
2023/11/27 03:33:00;;;;;;;5.18;3.20;;;22.50;41.30;;;;;;6178933;28;82406;-57
2023/11/27 03:36:02;;;;;;;6.88;3.20;;;22.50;41.30;;;;;;6177997;28;80759;-56
2023/11/27 03:39:05;;;;;;;6.60;3.67;;;22.50;41.60;;;;;;6193233;28;84934;-57
2023/11/27 03:42:06;;;;;;;5.82;3.08;;;22.50;40.80;;;;;;6202894;28;80502;-57
2023/11/27 03:45:06;;;;;;;6.43;3.30;;;22.50;40.60;;;;;;6190777;28;80717;-58
2023/11/27 03:48:07;;;;;;;5.53;3.22;;;22.50;40.10;;;;;;6177158;28;81304;-67
2023/11/27 03:51:08;;;;;;;5.13;3.00;;;22.50;39.40;;;;;;6133539;28;81704;-64
2023/11/27 03:54:11;;;;;;;6.07;3.15;;;22.50;39.60;;;;;;6178632;28;80580;-63
2023/11/27 03:57:11;;;;;;;8.50;3.10;;;22.50;39.80;;;;;;6179315;28;80483;-64
2023/11/27 04:00:13;;;;;;;4.97;3.15;;;22.50;39.80;;;;;;6170389;28;85366;-64
2023/11/27 04:03:13;;;;;;;5.07;2.83;;;22.40;40.10;;;;;;6178286;28;80064;-65
2023/11/27 04:06:15;;;;;;;4.22;2.63;;;22.50;40.10;;;;;;6175996;28;80147;-66
2023/11/27 04:09:20;;;;;;;6.10;3.13;;;22.50;39.80;;;;;;6178112;28;80453;-65
2023/11/27 04:12:21;;;;;;;4.13;2.77;;;22.50;39.90;;;;;;6174464;28;81582;-64
2023/11/27 04:15:22;;;;;;;5.57;2.78;;;22.50;39.80;;;;;;6176501;28;80912;-64
2023/11/27 04:18:23;;;;;;;7.22;3.35;;;22.50;39.90;;;;;;6177511;28;82522;-64
2023/11/27 04:21:23;;;;;;;5.40;2.88;;;22.50;39.50;;;;;;6175540;28;82324;-68
2023/11/27 04:24:24;;;;;;;7.18;4.03;;;22.60;39.60;;;;;;6157142;28;81511;-66
2023/11/27 04:27:24;;;;;;;4.38;2.55;;;22.60;39.40;;;;;;6173755;28;81055;-65
2023/11/27 04:30:25;;;;;;;6.07;2.97;;;22.60;39.20;;;;;;6169696;28;82696;-64
2023/11/27 04:33:25;;;;;;;5.28;2.70;;;22.60;39.20;;;;;;6178673;28;80595;-69
2023/11/27 04:36:26;;;;;;;4.70;2.85;;;22.70;39.50;;;;;;6178287;28;80977;-69
2023/11/27 04:39:26;;;;;;;4.85;2.67;;;22.70;39.30;;;;;;6178287;28;80971;-67
2023/11/27 04:42:27;;;;;;;4.05;2.88;;;22.80;39.20;;;;;;6176921;28;80155;-70
2023/11/27 04:45:27;;;;;;;3.72;2.35;;;22.80;39.20;;;;;;6177522;28;80590;-67
2023/11/27 04:48:28;;;;;;;4.53;2.58;;;22.80;39.30;;;;;;6177090;28;80933;-69
2023/11/27 04:51:28;;;;;;;4.07;2.50;;;22.90;39.20;;;;;;6176413;28;82631;-69
2023/11/27 04:54:30;;;;;;;4.82;2.83;;;22.90;39.00;;;;;;6177835;28;80872;-62
2023/11/27 04:57:31;;;;;;;3.30;2.25;;;22.90;38.80;;;;;;6177857;28;81204;-63
2023/11/27 05:00:32;;;;;;;4.28;2.67;;;22.90;38.50;;;;;;6165979;28;83494;-70
2023/11/27 05:03:32;;;;;;;4.30;2.83;;;23.00;38.70;;;;;;6159774;28;80863;-70
2023/11/27 05:06:33;;;;;;;5.00;2.85;;;23.00;38.60;;;;;;6167954;28;83346;-69
2023/11/27 05:09:36;;;;;;;4.22;2.47;;;23.00;38.50;;;;;;6176136;28;81854;-72
2023/11/27 05:12:37;;;;;;;4.45;2.63;;;23.00;38.50;;;;;;6177151;28;80451;-69
2023/11/27 05:15:37;;;;;;;3.67;2.35;;;23.00;38.90;;;;;;6176688;28;81207;-63
2023/11/27 05:18:38;;;;;;;4.43;2.13;;;23.00;38.90;;;;;;6175680;28;80955;-68
2023/11/27 05:21:38;;;;;;;4.20;2.67;;;23.00;39.50;;;;;;6175687;28;80384;-68
2023/11/27 05:24:39;;;;;;;6.28;2.38;;;23.00;39.70;;;;;;6177556;28;80767;-61
2023/11/27 05:27:39;;;;;;;7.28;3.17;;;23.00;39.70;;;;;;6176165;28;80687;-65
2023/11/27 05:30:40;;;;;;;5.68;2.83;;;23.10;40.30;;;;;;6174032;28;81401;-62
2023/11/27 05:33:42;;;;;;;5.07;2.22;;;23.00;40.40;;;;;;6172427;28;80203;-64
2023/11/27 05:36:42;;;;;;;4.90;2.45;;;23.00;40.60;;;;;;6176310;28;80546;-65
2023/11/27 05:39:43;;;;;;;5.53;2.25;;;23.10;40.80;;;;;;6175580;28;81887;-64
2023/11/27 05:42:43;;;;;;;6.07;2.42;;;23.10;40.70;;;;;;6175398;28;80500;-64
2023/11/27 05:45:44;;;;;;;6.40;2.20;;;23.00;40.70;;;;;;6176262;28;80528;-65
2023/11/27 05:48:44;;;;;;;3.55;2.50;;;23.00;40.50;;;;;;6174061;28;80604;-63
2023/11/27 05:51:46;;;;;;;8.43;3.00;;;23.00;40.70;;;;;;6174920;28;81592;-65
2023/11/27 05:54:46;;;;;;;18.08;2.17;;;23.00;40.40;;;;;;6175099;28;80532;-74
2023/11/27 05:57:47;;;;;;;6.22;2.67;;;23.00;40.80;;;;;;6175588;28;80779;-59
2023/11/27 06:00:47;;;;;;;8.98;2.40;;;23.00;41.20;;;;;;6173185;28;81036;-61
2023/11/27 06:03:48;;;;;;;6.40;2.65;;;22.90;41.40;;;;;;6165579;28;81884;-60
2023/11/27 06:06:48;;;;;;;4.90;2.38;;;22.90;40.50;;;;;;6173915;28;80441;-59
2023/11/27 06:09:49;;;;;;;4.05;2.53;;;22.80;39.90;;;;;;6174262;28;80576;-61
2023/11/27 06:12:50;;;;;;;5.80;2.60;;;22.80;40.20;;;;;;6175549;28;80806;-58
2023/11/27 06:15:50;;;;;;;5.30;2.42;;;22.70;39.50;;;;;;6167317;28;85202;-62
2023/11/27 06:18:51;;;;;;;4.60;2.55;;;22.70;39.50;;;;;;6170746;28;80377;-61
2023/11/27 06:21:51;;;;;;;3.53;2.55;;;22.70;40.10;;;;;;6169350;28;81232;-62
2023/11/27 06:24:52;;;;;;;11.15;2.50;;;22.70;39.90;;;;;;6161179;28;80867;-62
2023/11/27 06:27:52;;;;;;;4.07;2.53;;;22.70;39.90;;;;;;6172224;28;80627;-62
2023/11/27 06:30:54;;;;;;;2.92;2.25;;;22.60;39.50;;;;;;6170890;28;81202;-66
2023/11/27 06:33:54;;;;;;;4.97;3.03;;;22.60;40.00;;;;;;6173451;28;80466;-64
2023/11/27 06:36:55;;;;;;;5.72;4.35;;;22.30;36.40;;;;;;6172486;28;82314;-65
2023/11/27 06:39:56;;;;;;;7.90;3.97;;;21.80;34.50;;;;;;6172541;28;80758;-63
2023/11/27 06:42:57;;;;;;;6.03;3.42;;;21.20;33.90;;;;;;6175104;28;80408;-58
2023/11/27 06:45:57;;;;;;;5.07;3.00;;;21.10;35.20;;;;;;6172743;28;82673;-59
2023/11/27 06:48:58;;;;;;;4.20;2.67;;;21.20;36.20;;;;;;6175077;28;81279;-61
2023/11/27 06:51:58;;;;;;;7.65;3.72;;;21.30;36.20;;;;;;6175023;28;80857;-64
2023/11/27 06:54:59;;;;;;;5.63;2.85;;;21.50;36.20;;;;;;6173161;28;80696;-66
2023/11/27 06:58:00;;;;;;;6.90;3.28;;;21.50;36.30;;;;;;6169111;28;81061;-69
2023/11/27 07:01:01;;;;;;;6.38;3.50;;;21.60;36.70;;;;;;6173545;28;80671;-68
2023/11/27 07:04:02;;;;;;;4.57;3.03;;;21.70;37.30;;;;;;6171714;28;80435;-70
2023/11/27 07:07:02;;;;;;;4.93;3.08;;;21.70;36.90;;;;;;6175177;28;80460;-68
2023/11/27 07:10:03;;;;;;;4.63;2.92;;;21.80;37.10;;;;;;6173938;28;81382;-61
2023/11/27 07:13:03;;;;;;;5.60;2.65;;;21.80;37.20;;;;;;6156817;28;86098;-60
2023/11/27 07:16:04;;;;;;;5.35;2.85;;;21.90;37.10;;;;;;6142784;28;83244;-59
2023/11/27 07:19:04;;;;;;;5.47;2.90;;;21.90;37.30;;;;;;6163269;28;81155;-61
2023/11/27 07:22:05;;;;;;;4.05;2.60;;;21.90;37.20;;;;;;6167068;28;80388;-61
2023/11/27 07:25:06;;;;;;;4.38;2.78;;;21.90;37.20;;;;;;6173777;28;81093;-62
2023/11/27 07:28:07;;;;;;;4.13;2.92;;;22.00;37.40;;;;;;6171716;28;80477;-62
2023/11/27 07:31:07;;;;;;;6.13;3.17;;;22.00;37.40;;;;;;6166741;28;82061;-62
2023/11/27 07:34:11;;;;;;;4.25;2.47;;;21.90;37.30;;;;;;6172048;28;80882;-61
2023/11/27 07:37:11;;;;;;;3.80;2.53;;;22.00;37.70;;;;;;6173331;28;80921;-60
2023/11/27 07:40:14;;;;;;;4.53;2.95;;;22.00;37.40;;;;;;6169970;28;83297;-61
2023/11/27 07:43:14;;;;;;;5.15;2.35;;;22.00;37.40;;;;;;6172590;28;80426;-61
2023/11/27 07:46:15;;;;;;;5.88;3.17;;;22.00;37.70;;;;;;6174091;28;81255;-69
2023/11/27 07:49:16;;;;;;;4.90;2.95;;;22.00;37.60;;;;;;6173394;28;80711;-68
2023/11/27 07:52:16;;;;;;;5.00;2.88;;;22.00;37.80;;;;;;6137502;28;83336;-68
2023/11/27 07:55:17;;;;;;;4.00;2.92;;;22.10;38.20;;;;;;6146271;28;81126;-68
2023/11/27 07:58:18;;;;;;;7.35;2.90;;;22.10;38.20;;;;;;6171791;28;81872;-69
2023/11/27 08:01:18;;;;;;;4.43;2.80;;;22.10;38.30;;;;;;6172513;28;80869;-67
2023/11/27 08:04:19;;;;;;;3.40;2.38;;;22.10;38.20;;;;;;6175558;28;80494;-65
2023/11/27 08:07:19;;;;;;;6.72;3.00;;;22.10;39.00;;;;;;6172840;28;82924;-64
2023/11/27 08:10:21;;;;;;;4.40;3.22;;;22.20;39.20;;;;;;6170639;28;80418;-64
2023/11/27 08:13:22;;;;;;;3.80;2.90;;;22.20;39.10;;;;;;6174958;28;80555;-66
2023/11/27 08:16:22;;;;;;;5.05;2.95;;;22.20;38.90;;;;;;6173144;28;80747;-64
2023/11/27 08:19:23;;;;;;;4.35;2.75;;;22.20;39.10;;;;;;6171183;28;80755;-63
2023/11/27 08:22:23;;;;;;;7.03;3.28;;;22.20;38.90;;;;;;6170413;28;80776;-64
2023/11/27 08:25:24;;;;;;;6.35;3.60;;;22.20;38.80;;;;;;6169229;28;80712;-64
2023/11/27 08:28:24;;;;;;;6.53;3.50;;;22.20;38.70;;;;;;6169331;28;80399;-64
2023/11/27 08:31:31;;;;;;;4.95;3.22;;;22.20;39.00;;;;;;6170561;28;80526;-64
2023/11/27 08:34:31;;;;;;;8.02;3.47;;;22.30;39.10;;;;;;6164385;28;81888;-65
2023/11/27 08:37:35;;;;;;;5.47;3.20;;;22.30;38.30;;;;;;6176712;28;80623;-64
2023/11/27 08:40:36;;;;;;;4.03;2.95;;;22.40;37.90;;;;;;6149567;28;83716;-64
2023/11/27 08:43:39;;;;;;;5.18;3.13;;;22.40;37.70;;;;;;6166866;28;81833;-61
2023/11/27 08:46:39;;;;;;;4.85;3.05;;;22.50;37.50;;;;;;6170940;28;80566;-61
2023/11/27 08:49:40;;;;;;;4.68;3.13;;;22.50;37.30;;;;;;6172904;28;80396;-61
2023/11/27 08:52:43;;;;;;;4.63;3.35;;;22.60;37.90;;;;;;6172562;28;82421;-61
2023/11/27 08:55:44;;;;;;;4.82;3.13;;;22.60;37.00;;;;;;6170731;28;81354;-61
2023/11/27 08:58:47;;;;;;;5.60;3.22;;;22.60;37.00;;;;;;6177307;28;81287;-61
2023/11/27 09:01:47;;;;;;;7.70;4.03;;;22.70;37.00;;;;;;6174510;28;80403;-61
2023/11/27 09:04:49;;;;;;;4.90;3.45;;;22.70;36.90;;;;;;6167619;28;81603;-62
2023/11/27 09:07:53;;;;;;;8.75;3.83;;;22.70;37.00;;;;;;6173489;28;80451;-62
2023/11/27 09:10:54;;;;;;;6.07;3.85;;;22.70;37.00;;;;;;6175555;28;80260;-63
2023/11/27 09:13:55;;;;;;;5.07;3.33;;;22.70;37.20;;;;;;6175440;28;80464;-61
2023/11/27 09:16:56;;;;;;;4.35;2.97;;;22.70;37.20;;;;;;6173622;28;83237;-61
2023/11/27 09:19:57;;;;;;;6.28;3.83;;;22.80;37.20;;;;;;6167046;28;83471;-58
2023/11/27 09:22:57;;;;;;;8.73;4.00;;;22.80;37.00;;;;;;6166369;28;82911;-61
2023/11/27 09:25:58;;;;;;;7.75;4.55;;;22.80;36.70;;;;;;6174857;28;80463;-59
2023/11/27 09:28:58;;;;;;;10.07;4.38;;;22.80;36.70;;;;;;6175170;28;81450;-59
2023/11/27 09:31:59;;;;;;;6.85;3.67;;;22.80;37.20;;;;;;6174100;28;81034;-59
2023/11/27 09:35:00;;;;;;;6.80;3.60;;;22.80;37.50;;;;;;6171030;28;80551;-60
2023/11/27 09:38:00;;;;;;;5.65;3.85;;;22.80;37.80;;;;;;6175005;28;80716;-60
2023/11/27 09:41:03;;;;;;;7.28;4.70;;;22.70;37.40;;;;;;6175361;28;81235;-60
2023/11/27 09:44:04;;;;;;;6.00;3.58;;;22.70;37.00;;;;;;6174602;28;81631;-60
2023/11/27 09:47:05;;;;;;;5.38;3.78;;;22.70;36.70;;;;;;6172494;28;80632;-60
2023/11/27 09:50:08;;;;;;;6.35;4.43;;;22.70;36.80;;;;;;6166307;28;80403;-60
2023/11/27 09:53:08;;;;;;;5.32;3.92;;;22.70;36.80;;;;;;6172107;28;81633;-63
2023/11/27 09:56:09;;;;;;;7.90;3.60;;;22.70;36.50;;;;;;6165731;28;80984;-64
2023/11/27 09:59:10;;;;;;;7.20;4.00;;;22.70;36.70;;;;;;6174512;28;81420;-66
2023/11/27 10:02:10;;;;;;;5.45;3.65;;;22.60;36.60;;;;;;6170066;28;80396;-65
2023/11/27 10:05:11;;;;;;;6.88;3.85;;;22.70;36.70;;;;;;6173087;28;81107;-63
2023/11/27 10:08:12;;;;;;;7.75;3.67;;;22.70;36.70;;;;;;6174649;28;80489;-65
2023/11/27 10:11:13;;;;;;;5.75;3.47;;;22.80;36.70;;;;;;6174748;28;82587;-65
2023/11/27 10:14:13;;;;;;;5.95;3.83;;;23.00;37.20;;;;;;6173781;28;80503;-63
2023/11/27 10:17:14;;;;;;;5.97;3.47;;;23.20;37.20;;;;;;6174039;28;80549;-66
2023/11/27 10:20:18;;;;;;;5.55;3.75;;;23.40;36.70;;;;;;6162883;28;80317;-64
2023/11/27 10:23:19;;;;;;;6.70;3.45;;;23.50;36.40;;;;;;6186933;28;85081;-64
2023/11/27 10:26:20;;;;;;;6.88;4.00;;;23.70;36.30;;;;;;6198717;28;80568;-66
2023/11/27 10:29:21;;;;;;;6.15;3.55;;;23.60;36.30;;;;;;6180467;28;81045;-65
2023/11/27 10:32:25;;;;;;;6.38;4.03;;;23.60;36.20;;;;;;6122300;28;80521;-61
2023/11/27 10:35:25;;;;;;;5.65;3.90;;;23.60;36.50;;;;;;6169244;28;80879;-61
2023/11/27 10:38:26;;;;;;;5.03;3.35;;;23.60;37.00;;;;;;6171562;28;83335;-61
2023/11/27 10:41:27;;;;;;;6.35;3.45;;;23.60;36.80;;;;;;6173822;28;80835;-61
2023/11/27 10:44:27;;;;;;;6.80;3.90;;;23.50;36.70;;;;;;6172413;28;81136;-64
2023/11/27 10:47:28;;;;;;;5.90;3.53;;;23.60;36.50;;;;;;6172285;28;84422;-62
2023/11/27 10:50:28;;;;;;;6.97;3.33;;;23.80;36.40;;;;;;6174109;28;81202;-63
2023/11/27 10:53:30;;;;;;;5.25;3.47;;;23.90;36.40;;;;;;6172798;28;81571;-65
2023/11/27 10:56:31;;;;;;;5.97;3.58;;;24.00;36.60;;;;;;6169660;28;81042;-64
2023/11/27 10:59:32;;;;;;;4.50;3.00;;;24.10;36.90;;;;;;6174703;28;83404;-64
2023/11/27 11:02:33;;;;;;;5.95;3.20;;;24.00;36.80;;;;;;6174333;28;82289;-63
2023/11/27 11:05:35;;;;;;;7.57;3.63;;;23.90;37.30;;;;;;6173504;28;82217;-62
2023/11/27 11:08:36;;;;;;;7.30;3.53;;;23.80;37.60;;;;;;6173759;28;80197;-63
2023/11/27 11:11:36;;;;;;;6.70;3.60;;;23.80;37.00;;;;;;6174634;28;80539;-63
2023/11/27 11:14:37;;;;;;;8.13;3.67;;;23.80;37.10;;;;;;6174476;28;80679;-62
2023/11/27 11:17:38;;;;;;;7.25;3.30;;;23.80;37.20;;;;;;6155975;28;82714;-66
2023/11/27 11:20:42;;;;;;;6.00;3.65;;;23.70;37.20;;;;;;6169312;28;80662;-63
2023/11/27 11:23:43;;;;;;;6.15;3.03;;;23.70;38.10;;;;;;6172138;28;81946;-63
2023/11/27 11:26:43;;;;;;;6.63;3.83;;;23.70;38.80;;;;;;6170082;28;80564;-64
2023/11/27 11:29:44;;;;;;;5.03;3.08;;;23.90;38.30;;;;;;6172309;28;81136;-61
2023/11/27 11:32:46;;;;;;;5.82;2.97;;;24.00;37.80;;;;;;6175685;28;81358;-62
2023/11/27 11:35:46;;;;;;;6.47;3.70;;;24.20;37.60;;;;;;6175570;28;86493;-62
2023/11/27 11:38:48;;;;;;;6.05;3.17;;;24.30;37.10;;;;;;6176787;28;82986;-63
2023/11/27 11:41:52;;;;;;;5.53;3.30;;;24.40;36.70;;;;;;6175619;28;80882;-65
2023/11/27 11:44:53;;;;;;;5.07;3.20;;;24.50;36.60;;;;;;6177569;28;80603;-63
2023/11/27 11:47:54;;;;;;;8.93;3.83;;;24.60;36.60;;;;;;6176426;28;80131;-64
2023/11/27 11:50:54;;;;;;;5.38;3.08;;;24.70;36.80;;;;;;6172291;28;83821;-64
2023/11/27 11:53:55;;;;;;;4.20;3.10;;;24.80;36.30;;;;;;6177940;28;81066;-65
2023/11/27 11:56:57;;;;;;;5.97;3.75;;;24.90;36.40;;;;;;6177041;28;81771;-62
2023/11/27 12:00:03;;;;;;;5.68;3.22;;;25.00;36.40;;;;;;6177613;28;80457;-65
2023/11/27 12:03:18;;;;;;;4.45;3.20;;;25.10;36.40;;;;;;6176814;28;80303;-63
2023/11/27 12:06:19;;;;;;;6.28;3.17;;;25.20;35.80;;;;;;6177578;28;82122;-62
2023/11/27 12:09:19;;;;;;;4.85;3.22;;;25.20;36.20;;;;;;6176947;28;80908;-64
2023/11/27 12:12:20;;;;;;;6.68;3.05;;;25.40;36.00;;;;;;6176429;28;80544;-63
2023/11/27 12:15:23;;;;;;;5.15;3.25;;;25.40;35.90;;;;;;6176403;28;81600;-63
2023/11/27 12:18:25;;;;;;;5.15;3.17;;;25.50;35.60;;;;;;6175578;28;80876;-63
2023/11/27 12:21:26;;;;;;;6.30;3.10;;;25.50;35.70;;;;;;6176599;28;80231;-65
2023/11/27 12:24:28;;;;;;;4.30;2.90;;;25.60;35.60;;;;;;6175276;28;82926;-66
2023/11/27 12:27:29;;;;;;;4.95;2.72;;;25.70;35.50;;;;;;6177665;28;81070;-62
2023/11/27 12:30:29;;;;;;;6.28;2.85;;;25.70;35.60;;;;;;6176652;28;81023;-62
2023/11/27 12:33:30;;;;;;;5.35;3.13;;;25.70;35.30;;;;;;6176450;28;80497;-63
2023/11/27 12:36:30;;;;;;;4.57;2.95;;;25.80;35.20;;;;;;6177154;28;80818;-63
2023/11/27 12:39:31;;;;;;;4.85;3.13;;;25.80;34.90;;;;;;6176638;28;82395;-63
2023/11/27 12:42:31;;;;;;;4.57;3.00;;;25.80;35.10;;;;;;6176418;28;81131;-62
2023/11/27 12:45:32;;;;;;;3.90;2.80;;;25.80;35.10;;;;;;6176697;28;81137;-61
2023/11/27 12:48:33;;;;;;;4.60;3.35;;;25.90;35.10;;;;;;6176721;28;80927;-61
2023/11/27 12:51:37;;;;;;;4.35;2.72;;;25.80;34.70;;;;;;6175459;28;80839;-62
2023/11/27 12:54:38;;;;;;;3.95;2.67;;;25.80;34.80;;;;;;6177565;28;80371;-61
2023/11/27 12:57:38;;;;;;;4.50;2.92;;;25.80;34.80;;;;;;6168387;28;82103;-63
2023/11/27 13:00:45;;;;;;;4.88;2.83;;;25.80;34.70;;;;;;6176721;28;80881;-64
2023/11/27 13:03:47;;;;;;;4.82;3.17;;;25.80;34.90;;;;;;6175149;28;80227;-66
2023/11/27 13:06:47;;;;;;;4.57;3.17;;;25.80;34.90;;;;;;6176966;28;81355;-65
2023/11/27 13:09:52;;;;;;;4.22;3.13;;;25.70;34.40;;;;;;6176073;28;80331;-64
2023/11/27 13:12:54;;;;;;;4.70;2.95;;;25.70;34.30;;;;;;6177514;28;81150;-61
2023/11/27 13:16:01;;;;;;;4.00;2.80;;;25.60;34.50;;;;;;6176933;28;82802;-62
2023/11/27 13:19:11;;;;;;;4.63;3.17;;;25.60;34.60;;;;;;6176133;28;81464;-63
2023/11/27 13:22:14;;;;;;;6.05;3.95;;;25.60;34.50;;;;;;6176318;28;80549;-64
2023/11/27 13:25:16;;;;;;;4.72;3.58;;;25.60;34.40;;;;;;6177125;28;80346;-64
2023/11/27 13:28:20;;;;;;;5.32;3.47;;;25.60;34.70;;;;;;6176985;28;81107;-63
2023/11/27 13:31:20;;;;;;;4.68;3.25;;;25.50;34.60;;;;;;6177377;28;80598;-64
2023/11/27 13:34:32;;;;;;;5.72;3.60;;;25.50;34.50;;;;;;6176696;28;80580;-65
2023/11/27 13:37:34;;;;;;;5.85;3.20;;;25.40;34.30;;;;;;6177887;28;80957;-59
2023/11/27 13:40:35;;;;;;;6.72;3.75;;;25.30;34.50;;;;;;6176120;28;80720;-58
2023/11/27 13:43:35;;;;;;;6.47;3.45;;;25.10;34.70;;;;;;6175915;28;82516;-59
2023/11/27 13:46:37;;;;;;;6.50;3.58;;;24.90;35.10;;;;;;6174153;28;80337;-58
2023/11/27 13:49:37;;;;;;;8.32;3.30;;;24.80;35.10;;;;;;6173729;28;80417;-59
2023/11/27 13:52:41;;;;;;;5.53;3.30;;;24.70;35.30;;;;;;6172264;28;81755;-60
2023/11/27 13:55:42;;;;;;;5.50;3.63;;;24.60;35.50;;;;;;6177091;28;80924;-59
2023/11/27 13:58:48;;;;;;;5.93;3.80;;;24.60;35.60;;;;;;6176932;28;80676;-58
2023/11/27 14:01:54;;;;;;;5.85;3.78;;;24.40;35.30;;;;;;6174233;28;80316;-60
2023/11/27 14:04:55;;;;;;;6.88;3.58;;;24.30;35.50;;;;;;6174670;28;81129;-59
2023/11/27 14:08:01;;;;;;;6.97;4.15;;;24.20;35.80;;;;;;6171987;28;80640;-58
2023/11/27 14:11:27;;;;;;;6.65;3.72;;;24.10;35.40;;;;;;6175943;28;80277;-60
2023/11/27 14:14:27;;;;;;;7.32;4.32;;;24.00;35.40;;;;;;6190364;28;85623;-60
2023/11/27 14:17:33;;;;;;;8.20;3.97;;;23.90;35.40;;;;;;6178999;28;80225;-60
2023/11/27 14:20:51;;;;;;;7.47;4.38;;;23.80;35.50;;;;;;6175622;28;80669;-60
2023/11/27 14:23:54;;;;;;;6.28;3.95;;;23.70;35.60;;;;;;6175253;28;82585;-58
2023/11/27 14:27:19;;;;;;;7.15;3.83;;;23.70;36.00;;;;;;6174919;28;81285;-58
2023/11/27 14:30:22;;;;;;;6.90;3.95;;;23.70;36.30;;;;;;6174614;28;80562;-71
2023/11/27 14:33:24;;;;;;;5.82;3.60;;;23.60;36.80;;;;;;6173798;28;80656;-73
2023/11/27 14:36:28;;;;;;;7.55;3.92;;;23.70;36.60;;;;;;6175043;28;80366;-73
2023/11/27 14:39:33;;;;;;;6.82;4.03;;;23.70;36.40;;;;;;6174888;28;80309;-76
2023/11/27 14:42:33;;;;;;;9.20;5.18;;;23.60;36.20;;;;;;6176113;28;80670;-71
2023/11/27 14:45:42;;;;;;;9.82;4.60;;;23.60;35.80;;;;;;6175722;28;80009;-70
2023/11/27 14:48:43;;;;;;;6.93;3.90;;;23.60;35.80;;;;;;6173798;28;81522;-72
2023/11/27 14:51:43;;;;;;;6.65;4.30;;;23.60;35.80;;;;;;6173948;28;81086;-71
2023/11/27 14:54:46;;;;;;;8.80;4.70;;;23.60;35.70;;;;;;6165190;28;80313;-70
2023/11/27 14:57:48;;;;;;;7.22;4.15;;;23.60;35.70;;;;;;6155536;28;83415;-68
2023/11/27 15:00:51;;;;;;;8.00;4.07;;;23.60;36.10;;;;;;6168325;28;82192;-68
2023/11/27 15:03:51;;;;;;;8.00;4.82;;;23.60;36.30;;;;;;6172878;28;83913;-73
2023/11/27 15:06:52;;;;;;;9.82;4.65;;;23.60;36.20;;;;;;6177089;28;80241;-73
2023/11/27 15:09:55;;;;;;;9.68;5.13;;;23.60;36.20;;;;;;6180167;28;83482;-73
2023/11/27 15:12:55;;;;;;;9.30;4.40;;;23.60;36.50;;;;;;6168836;28;81316;-68
2023/11/27 15:15:58;;;;;;;7.57;4.68;;;23.60;36.20;;;;;;6176377;28;80440;-72
2023/11/27 15:18:58;;;;;;;6.32;4.07;;;23.60;36.50;;;;;;6175964;28;80854;-65
2023/11/27 15:21:59;;;;;;;19.65;4.40;;;23.60;36.90;;;;;;6179993;28;81280;-68
2023/11/27 15:25:04;;;;;;;16.83;4.85;;;23.60;37.00;;;;;;6178711;28;80161;-65
2023/11/27 15:28:05;;;;;;;12.30;4.70;;;23.60;37.20;;;;;;6178173;28;80762;-64
2023/11/27 15:31:05;;;;;;;9.20;4.60;;;23.60;37.10;;;;;;6179438;28;80900;-66
2023/11/27 15:34:08;;;;;;;10.15;4.55;;;23.60;37.30;;;;;;6177028;28;80523;-67
2023/11/27 15:37:09;;;;;;;12.40;4.95;;;23.60;37.20;;;;;;6178657;28;80534;-69
2023/11/27 15:40:14;;;;;;;13.55;4.60;;;23.50;36.80;;;;;;6179064;28;80423;-68
2023/11/27 15:43:14;;;;;;;8.67;5.03;;;23.60;37.20;;;;;;6179093;28;80548;-60